sensor_id;sensor_type;location;lat;lon;timestamp;temperature;humidity
39665;DHT22;26679;50.872;4.332;2022-09-09T00:00:16;16.60;99.90
39665;DHT22;26679;50.872;4.332;2022-09-09T00:02:45;16.60;99.90
39665;DHT22;26679;50.872;4.332;2022-09-09T00:05:14;16.50;99.90
39665;DHT22;26679;50.872;4.332;2022-09-09T00:07:47;16.40;99.90
39665;DHT22;26679;50.872;4.332;2022-09-09T00:13:00;16.30;99.90
39665;DHT22;26679;50.872;4.332;2022-09-09T00:15:38;16.40;99.90
39665;DHT22;26679;50.872;4.332;2022-09-09T00:18:42;16.40;99.90
39665;DHT22;26679;50.872;4.332;2022-09-09T00:23:39;16.40;99.90
39665;DHT22;26679;50.872;4.332;2022-09-09T00:26:09;16.50;99.90
39665;DHT22;26679;50.872;4.332;2022-09-09T00:31:26;16.40;99.90
39665;DHT22;26679;50.872;4.332;2022-09-09T00:33:52;16.50;99.90
39665;DHT22;26679;50.872;4.332;2022-09-09T00:36:18;16.50;99.90
39665;DHT22;26679;50.872;4.332;2022-09-09T00:38:49;16.60;99.90
39665;DHT22;26679;50.872;4.332;2022-09-09T00:41:21;16.60;99.90
39665;DHT22;26679;50.872;4.332;2022-09-09T00:51:25;16.50;99.90
39665;DHT22;26679;50.872;4.332;2022-09-09T00:56:32;16.70;99.90
39665;DHT22;26679;50.872;4.332;2022-09-09T00:59:08;16.70;99.90
39665;DHT22;26679;50.872;4.332;2022-09-09T01:01:37;16.70;99.90
39665;DHT22;26679;50.872;4.332;2022-09-09T01:04:06;16.70;99.90
39665;DHT22;26679;50.872;4.332;2022-09-09T01:06:36;16.70;99.90
39665;DHT22;26679;50.872;4.332;2022-09-09T01:16:45;16.70;99.90
39665;DHT22;26679;50.872;4.332;2022-09-09T01:19:14;16.70;99.90
39665;DHT22;26679;50.872;4.332;2022-09-09T01:21:50;16.70;99.90
39665;DHT22;26679;50.872;4.332;2022-09-09T01:24:26;16.70;99.90
39665;DHT22;26679;50.872;4.332;2022-09-09T01:26:54;16.60;99.90
39665;DHT22;26679;50.872;4.332;2022-09-09T01:29:22;16.70;99.90
39665;DHT22;26679;50.872;4.332;2022-09-09T01:31:52;16.60;99.90
39665;DHT22;26679;50.872;4.332;2022-09-09T01:34:18;16.40;99.90
39665;DHT22;26679;50.872;4.332;2022-09-09T01:39:16;16.30;99.90
39665;DHT22;26679;50.872;4.332;2022-09-09T01:41:42;16.40;99.90
39665;DHT22;26679;50.872;4.332;2022-09-09T01:44:08;16.50;99.90
39665;DHT22;26679;50.872;4.332;2022-09-09T01:46:33;16.50;99.90
39665;DHT22;26679;50.872;4.332;2022-09-09T01:48:59;16.50;99.90
39665;DHT22;26679;50.872;4.332;2022-09-09T01:51:27;16.40;99.90
39665;DHT22;26679;50.872;4.332;2022-09-09T01:53:52;16.30;99.90
39665;DHT22;26679;50.872;4.332;2022-09-09T01:58:47;16.50;99.90
39665;DHT22;26679;50.872;4.332;2022-09-09T02:03:44;16.40;99.90
39665;DHT22;26679;50.872;4.332;2022-09-09T02:13:46;16.30;99.90
39665;DHT22;26679;50.872;4.332;2022-09-09T02:21:05;16.30;99.90
39665;DHT22;26679;50.872;4.332;2022-09-09T02:23:31;16.30;99.90
39665;DHT22;26679;50.872;4.332;2022-09-09T02:25:57;16.50;99.90
39665;DHT22;26679;50.872;4.332;2022-09-09T02:28:24;16.40;99.90
39665;DHT22;26679;50.872;4.332;2022-09-09T02:30:51;16.40;99.90
39665;DHT22;26679;50.872;4.332;2022-09-09T02:33:24;16.30;99.90
39665;DHT22;26679;50.872;4.332;2022-09-09T02:35:50;16.30;99.90
39665;DHT22;26679;50.872;4.332;2022-09-09T02:38:16;16.30;99.90
39665;DHT22;26679;50.872;4.332;2022-09-09T02:40:42;16.30;99.90
39665;DHT22;26679;50.872;4.332;2022-09-09T02:43:08;16.30;99.90
39665;DHT22;26679;50.872;4.332;2022-09-09T02:45:46;16.40;99.90
39665;DHT22;26679;50.872;4.332;2022-09-09T02:48:17;16.50;99.90
39665;DHT22;26679;50.872;4.332;2022-09-09T02:53:29;16.40;99.90
39665;DHT22;26679;50.872;4.332;2022-09-09T02:56:03;16.30;99.90
39665;DHT22;26679;50.872;4.332;2022-09-09T02:58:30;16.30;99.90
39665;DHT22;26679;50.872;4.332;2022-09-09T03:00:56;16.40;99.90
39665;DHT22;26679;50.872;4.332;2022-09-09T03:03:23;16.40;99.90
39665;DHT22;26679;50.872;4.332;2022-09-09T03:05:49;16.40;99.90
39665;DHT22;26679;50.872;4.332;2022-09-09T03:08:14;16.40;99.90
39665;DHT22;26679;50.872;4.332;2022-09-09T03:10:40;16.40;99.90
39665;DHT22;26679;50.872;4.332;2022-09-09T03:13:05;16.40;99.90
39665;DHT22;26679;50.872;4.332;2022-09-09T03:15:34;16.30;99.90
39665;DHT22;26679;50.872;4.332;2022-09-09T03:17:59;16.20;99.90
39665;DHT22;26679;50.872;4.332;2022-09-09T03:20:25;16.40;99.90
39665;DHT22;26679;50.872;4.332;2022-09-09T03:22:54;16.40;99.90
39665;DHT22;26679;50.872;4.332;2022-09-09T03:25:21;16.40;99.90
39665;DHT22;26679;50.872;4.332;2022-09-09T03:27:49;16.40;99.90
39665;DHT22;26679;50.872;4.332;2022-09-09T03:30:15;16.10;99.90
39665;DHT22;26679;50.872;4.332;2022-09-09T03:32:41;16.10;99.90
39665;DHT22;26679;50.872;4.332;2022-09-09T03:35:06;16.10;99.90
39665;DHT22;26679;50.872;4.332;2022-09-09T03:37:32;16.10;99.90
39665;DHT22;26679;50.872;4.332;2022-09-09T03:39:57;16.20;99.90
39665;DHT22;26679;50.872;4.332;2022-09-09T03:42:23;16.30;99.90
39665;DHT22;26679;50.872;4.332;2022-09-09T03:44:48;16.30;99.90
39665;DHT22;26679;50.872;4.332;2022-09-09T03:47:21;16.30;99.90
39665;DHT22;26679;50.872;4.332;2022-09-09T03:49:47;16.20;99.90
39665;DHT22;26679;50.872;4.332;2022-09-09T03:52:14;16.30;99.90
39665;DHT22;26679;50.872;4.332;2022-09-09T03:54:40;16.20;99.90
39665;DHT22;26679;50.872;4.332;2022-09-09T03:57:06;16.20;99.90
39665;DHT22;26679;50.872;4.332;2022-09-09T03:59:31;16.20;99.90
39665;DHT22;26679;50.872;4.332;2022-09-09T04:01:57;16.30;99.90
39665;DHT22;26679;50.872;4.332;2022-09-09T04:04:24;16.20;99.90
39665;DHT22;26679;50.872;4.332;2022-09-09T04:06:51;16.30;99.90
39665;DHT22;26679;50.872;4.332;2022-09-09T04:09:17;16.40;99.90
39665;DHT22;26679;50.872;4.332;2022-09-09T04:11:43;16.50;99.90
39665;DHT22;26679;50.872;4.332;2022-09-09T04:14:08;16.50;99.90
39665;DHT22;26679;50.872;4.332;2022-09-09T04:16:34;16.40;99.90
39665;DHT22;26679;50.872;4.332;2022-09-09T04:19:02;16.40;99.90
39665;DHT22;26679;50.872;4.332;2022-09-09T04:21:29;16.40;99.90
39665;DHT22;26679;50.872;4.332;2022-09-09T04:23:55;16.40;99.90
39665;DHT22;26679;50.872;4.332;2022-09-09T04:26:20;16.40;99.90
39665;DHT22;26679;50.872;4.332;2022-09-09T04:28:46;16.30;99.90
39665;DHT22;26679;50.872;4.332;2022-09-09T04:31:19;16.30;99.90
39665;DHT22;26679;50.872;4.332;2022-09-09T04:33:45;16.10;99.90
39665;DHT22;26679;50.872;4.332;2022-09-09T04:36:12;16.00;99.90
39665;DHT22;26679;50.872;4.332;2022-09-09T04:38:37;16.10;99.90
39665;DHT22;26679;50.872;4.332;2022-09-09T04:41:03;16.00;99.90
39665;DHT22;26679;50.872;4.332;2022-09-09T04:43:29;16.10;99.90
39665;DHT22;26679;50.872;4.332;2022-09-09T04:45:56;16.20;99.90
39665;DHT22;26679;50.872;4.332;2022-09-09T04:48:21;16.10;99.90
39665;DHT22;26679;50.872;4.332;2022-09-09T04:51:20;16.10;99.90
39665;DHT22;26679;50.872;4.332;2022-09-09T04:53:39;16.20;99.90
39665;DHT22;26679;50.872;4.332;2022-09-09T04:56:06;16.10;99.90
39665;DHT22;26679;50.872;4.332;2022-09-09T04:58:32;16.00;99.90
39665;DHT22;26679;50.872;4.332;2022-09-09T05:03:34;16.00;99.90
39665;DHT22;26679;50.872;4.332;2022-09-09T05:06:18;16.00;99.90
39665;DHT22;26679;50.872;4.332;2022-09-09T05:08:44;16.00;99.90
39665;DHT22;26679;50.872;4.332;2022-09-09T05:11:29;16.00;99.90
39665;DHT22;26679;50.872;4.332;2022-09-09T05:13:55;16.10;99.90
39665;DHT22;26679;50.872;4.332;2022-09-09T05:16:22;16.10;99.90
39665;DHT22;26679;50.872;4.332;2022-09-09T05:18:48;16.20;99.90
39665;DHT22;26679;50.872;4.332;2022-09-09T05:21:16;16.20;99.90
39665;DHT22;26679;50.872;4.332;2022-09-09T05:23:41;16.30;99.90
39665;DHT22;26679;50.872;4.332;2022-09-09T05:26:09;16.30;99.90
39665;DHT22;26679;50.872;4.332;2022-09-09T05:28:36;16.30;99.90
39665;DHT22;26679;50.872;4.332;2022-09-09T05:31:03;16.20;99.90
39665;DHT22;26679;50.872;4.332;2022-09-09T05:33:30;16.20;99.90
39665;DHT22;26679;50.872;4.332;2022-09-09T05:35:59;16.10;99.90
39665;DHT22;26679;50.872;4.332;2022-09-09T05:38:25;15.90;99.90
39665;DHT22;26679;50.872;4.332;2022-09-09T05:40:51;15.90;99.90
39665;DHT22;26679;50.872;4.332;2022-09-09T05:43:18;15.80;99.90
39665;DHT22;26679;50.872;4.332;2022-09-09T05:45:45;15.70;99.90
39665;DHT22;26679;50.872;4.332;2022-09-09T05:48:13;15.80;99.90
39665;DHT22;26679;50.872;4.332;2022-09-09T05:50:40;15.70;99.90
39665;DHT22;26679;50.872;4.332;2022-09-09T05:53:06;15.70;99.90
39665;DHT22;26679;50.872;4.332;2022-09-09T05:55:31;15.80;99.90
39665;DHT22;26679;50.872;4.332;2022-09-09T05:57:57;15.70;99.90
39665;DHT22;26679;50.872;4.332;2022-09-09T06:00:22;15.80;99.90
39665;DHT22;26679;50.872;4.332;2022-09-09T06:02:51;15.80;99.90
39665;DHT22;26679;50.872;4.332;2022-09-09T06:05:17;15.90;99.90
39665;DHT22;26679;50.872;4.332;2022-09-09T06:07:43;16.00;99.90
39665;DHT22;26679;50.872;4.332;2022-09-09T06:10:10;16.10;99.90
39665;DHT22;26679;50.872;4.332;2022-09-09T06:12:36;16.20;99.90
39665;DHT22;26679;50.872;4.332;2022-09-09T06:15:01;16.40;99.90
39665;DHT22;26679;50.872;4.332;2022-09-09T06:17:27;16.50;99.90
39665;DHT22;26679;50.872;4.332;2022-09-09T06:19:53;16.50;99.90
39665;DHT22;26679;50.872;4.332;2022-09-09T06:22:18;16.60;99.90
39665;DHT22;26679;50.872;4.332;2022-09-09T06:24:44;16.60;99.90
39665;DHT22;26679;50.872;4.332;2022-09-09T06:27:10;16.70;99.90
39665;DHT22;26679;50.872;4.332;2022-09-09T06:29:36;16.70;99.90
39665;DHT22;26679;50.872;4.332;2022-09-09T06:32:02;16.70;99.90
39665;DHT22;26679;50.872;4.332;2022-09-09T06:34:28;16.80;99.90
39665;DHT22;26679;50.872;4.332;2022-09-09T06:36:53;16.80;99.90
39665;DHT22;26679;50.872;4.332;2022-09-09T06:39:19;16.80;99.90
39665;DHT22;26679;50.872;4.332;2022-09-09T06:41:44;16.80;99.90
39665;DHT22;26679;50.872;4.332;2022-09-09T06:44:10;16.70;99.90
39665;DHT22;26679;50.872;4.332;2022-09-09T06:46:38;16.70;99.90
39665;DHT22;26679;50.872;4.332;2022-09-09T06:49:04;16.70;99.90
39665;DHT22;26679;50.872;4.332;2022-09-09T06:51:31;16.80;99.90
39665;DHT22;26679;50.872;4.332;2022-09-09T06:53:58;16.80;99.90
39665;DHT22;26679;50.872;4.332;2022-09-09T06:58:53;16.30;99.90
39665;DHT22;26679;50.872;4.332;2022-09-09T07:01:20;17.00;99.90
39665;DHT22;26679;50.872;4.332;2022-09-09T07:03:47;17.10;99.90
39665;DHT22;26679;50.872;4.332;2022-09-09T07:06:16;17.00;99.90
39665;DHT22;26679;50.872;4.332;2022-09-09T07:08:42;17.10;99.90
39665;DHT22;26679;50.872;4.332;2022-09-09T07:11:08;17.00;99.90
39665;DHT22;26679;50.872;4.332;2022-09-09T07:13:34;17.10;99.90
39665;DHT22;26679;50.872;4.332;2022-09-09T07:16:04;17.10;99.90
39665;DHT22;26679;50.872;4.332;2022-09-09T07:18:29;17.20;99.90
39665;DHT22;26679;50.872;4.332;2022-09-09T07:20:55;17.30;99.90
39665;DHT22;26679;50.872;4.332;2022-09-09T07:23:22;17.30;99.90
39665;DHT22;26679;50.872;4.332;2022-09-09T07:25:48;17.30;99.90
39665;DHT22;26679;50.872;4.332;2022-09-09T07:28:14;17.20;99.90
39665;DHT22;26679;50.872;4.332;2022-09-09T07:30:39;17.20;99.90
39665;DHT22;26679;50.872;4.332;2022-09-09T07:33:05;17.20;99.90
39665;DHT22;26679;50.872;4.332;2022-09-09T07:35:31;17.10;99.90
39665;DHT22;26679;50.872;4.332;2022-09-09T07:37:56;17.20;99.90
39665;DHT22;26679;50.872;4.332;2022-09-09T07:40:23;17.10;99.90
39665;DHT22;26679;50.872;4.332;2022-09-09T07:42:48;16.90;99.90
39665;DHT22;26679;50.872;4.332;2022-09-09T07:45:14;16.70;99.90
39665;DHT22;26679;50.872;4.332;2022-09-09T07:47:39;16.60;99.90
39665;DHT22;26679;50.872;4.332;2022-09-09T07:50:08;16.60;99.90
39665;DHT22;26679;50.872;4.332;2022-09-09T07:52:34;16.60;99.90
39665;DHT22;26679;50.872;4.332;2022-09-09T07:55:01;16.60;99.90
39665;DHT22;26679;50.872;4.332;2022-09-09T07:57:30;16.70;99.90
39665;DHT22;26679;50.872;4.332;2022-09-09T07:59:56;16.70;99.90
39665;DHT22;26679;50.872;4.332;2022-09-09T08:02:21;16.70;99.90
39665;DHT22;26679;50.872;4.332;2022-09-09T08:04:48;16.90;99.90
39665;DHT22;26679;50.872;4.332;2022-09-09T08:07:13;17.10;99.90
39665;DHT22;26679;50.872;4.332;2022-09-09T08:09:40;17.40;99.90
39665;DHT22;26679;50.872;4.332;2022-09-09T08:12:06;17.60;99.90
39665;DHT22;26679;50.872;4.332;2022-09-09T08:14:32;17.80;99.90
39665;DHT22;26679;50.872;4.332;2022-09-09T08:16:57;18.00;99.90
39665;DHT22;26679;50.872;4.332;2022-09-09T08:19:23;18.00;99.90
39665;DHT22;26679;50.872;4.332;2022-09-09T08:21:48;17.80;99.90
39665;DHT22;26679;50.872;4.332;2022-09-09T08:24:14;17.70;99.90
39665;DHT22;26679;50.872;4.332;2022-09-09T08:26:43;17.70;99.90
39665;DHT22;26679;50.872;4.332;2022-09-09T08:29:10;17.80;99.90
39665;DHT22;26679;50.872;4.332;2022-09-09T08:31:41;17.70;99.90
39665;DHT22;26679;50.872;4.332;2022-09-09T08:34:07;17.60;99.90
39665;DHT22;26679;50.872;4.332;2022-09-09T08:36:34;17.60;99.90
39665;DHT22;26679;50.872;4.332;2022-09-09T08:39:00;17.40;99.90
39665;DHT22;26679;50.872;4.332;2022-09-09T08:51:41;16.70;99.90
39665;DHT22;26679;50.872;4.332;2022-09-09T08:54:07;16.70;99.90
39665;DHT22;26679;50.872;4.332;2022-09-09T08:56:34;16.70;99.90
39665;DHT22;26679;50.872;4.332;2022-09-09T08:59:02;16.80;99.90
39665;DHT22;26679;50.872;4.332;2022-09-09T09:06:48;16.90;99.90
39665;DHT22;26679;50.872;4.332;2022-09-09T09:11:48;16.80;99.90
39665;DHT22;26679;50.872;4.332;2022-09-09T09:14:19;16.70;99.90
39665;DHT22;26679;50.872;4.332;2022-09-09T09:19:14;16.50;99.90
39665;DHT22;26679;50.872;4.332;2022-09-09T09:21:42;16.40;99.90
39665;DHT22;26679;50.872;4.332;2022-09-09T09:24:19;16.40;99.90
39665;DHT22;26679;50.872;4.332;2022-09-09T09:26:45;16.40;99.90
39665;DHT22;26679;50.872;4.332;2022-09-09T09:29:12;16.40;99.90
39665;DHT22;26679;50.872;4.332;2022-09-09T09:31:38;16.40;99.90
39665;DHT22;26679;50.872;4.332;2022-09-09T09:34:04;16.40;99.90
39665;DHT22;26679;50.872;4.332;2022-09-09T09:36:33;16.20;99.90
39665;DHT22;26679;50.872;4.332;2022-09-09T09:39:00;16.10;99.90
39665;DHT22;26679;50.872;4.332;2022-09-09T09:41:44;16.10;99.90
39665;DHT22;26679;50.872;4.332;2022-09-09T09:46:47;16.10;99.90
39665;DHT22;26679;50.872;4.332;2022-09-09T09:49:12;16.20;99.90
39665;DHT22;26679;50.872;4.332;2022-09-09T09:51:39;16.30;99.90
39665;DHT22;26679;50.872;4.332;2022-09-09T09:56:31;16.40;99.90
39665;DHT22;26679;50.872;4.332;2022-09-09T09:58:57;16.50;99.90
39665;DHT22;26679;50.872;4.332;2022-09-09T10:01:25;16.60;99.90
39665;DHT22;26679;50.872;4.332;2022-09-09T10:04:01;16.50;99.90
39665;DHT22;26679;50.872;4.332;2022-09-09T10:06:34;16.60;99.90
39665;DHT22;26679;50.872;4.332;2022-09-09T10:09:00;16.60;99.90
39665;DHT22;26679;50.872;4.332;2022-09-09T10:11:30;16.60;99.90
39665;DHT22;26679;50.872;4.332;2022-09-09T10:14:08;16.80;99.90
39665;DHT22;26679;50.872;4.332;2022-09-09T10:19:50;17.00;99.90
39665;DHT22;26679;50.872;4.332;2022-09-09T10:37:41;18.50;99.90
39665;DHT22;26679;50.872;4.332;2022-09-09T10:42:34;18.60;99.90
39665;DHT22;26679;50.872;4.332;2022-09-09T10:47:41;18.80;99.90
39665;DHT22;26679;50.872;4.332;2022-09-09T10:52:44;19.00;99.90
39665;DHT22;26679;50.872;4.332;2022-09-09T10:55:19;19.00;99.90
39665;DHT22;26679;50.872;4.332;2022-09-09T10:57:46;19.20;99.90
39665;DHT22;26679;50.872;4.332;2022-09-09T11:02:44;19.30;99.90
39665;DHT22;26679;50.872;4.332;2022-09-09T11:05:20;19.30;99.90
39665;DHT22;26679;50.872;4.332;2022-09-09T11:10:40;19.40;99.90
39665;DHT22;26679;50.872;4.332;2022-09-09T11:13:12;19.40;99.90
39665;DHT22;26679;50.872;4.332;2022-09-09T11:18:20;19.40;99.90
39665;DHT22;26679;50.872;4.332;2022-09-09T11:20:54;19.30;99.90
39665;DHT22;26679;50.872;4.332;2022-09-09T11:23:25;19.30;99.90
39665;DHT22;26679;50.872;4.332;2022-09-09T11:25:56;19.10;99.90
39665;DHT22;26679;50.872;4.332;2022-09-09T11:28:29;18.80;99.90
39665;DHT22;26679;50.872;4.332;2022-09-09T11:38:39;18.80;99.90
39665;DHT22;26679;50.872;4.332;2022-09-09T11:41:07;18.70;99.90
39665;DHT22;26679;50.872;4.332;2022-09-09T11:43:39;18.90;99.90
39665;DHT22;26679;50.872;4.332;2022-09-09T11:46:06;19.00;99.90
39665;DHT22;26679;50.872;4.332;2022-09-09T11:48:36;19.10;99.90
39665;DHT22;26679;50.872;4.332;2022-09-09T11:51:04;19.20;99.90
39665;DHT22;26679;50.872;4.332;2022-09-09T11:53:30;19.10;99.90
39665;DHT22;26679;50.872;4.332;2022-09-09T11:56:00;19.10;99.90
39665;DHT22;26679;50.872;4.332;2022-09-09T11:58:26;19.20;99.90
39665;DHT22;26679;50.872;4.332;2022-09-09T12:00:57;19.20;99.90
39665;DHT22;26679;50.872;4.332;2022-09-09T12:06:00;19.20;99.90
39665;DHT22;26679;50.872;4.332;2022-09-09T12:08:34;19.00;99.90
39665;DHT22;26679;50.872;4.332;2022-09-09T12:11:02;18.90;99.90
39665;DHT22;26679;50.872;4.332;2022-09-09T12:13:28;18.90;99.90
39665;DHT22;26679;50.872;4.332;2022-09-09T12:15:55;18.90;99.90
39665;DHT22;26679;50.872;4.332;2022-09-09T12:21:00;18.80;99.90
39665;DHT22;26679;50.872;4.332;2022-09-09T12:34:02;19.30;99.90
39665;DHT22;26679;50.872;4.332;2022-09-09T12:36:29;19.60;99.90
39665;DHT22;26679;50.872;4.332;2022-09-09T12:38:56;19.90;99.90
39665;DHT22;26679;50.872;4.332;2022-09-09T12:41:26;20.20;99.90
39665;DHT22;26679;50.872;4.332;2022-09-09T12:44:03;20.20;99.90
39665;DHT22;26679;50.872;4.332;2022-09-09T12:46:35;20.00;99.90
39665;DHT22;26679;50.872;4.332;2022-09-09T12:49:02;20.00;99.90
39665;DHT22;26679;50.872;4.332;2022-09-09T12:51:31;20.00;99.90
39665;DHT22;26679;50.872;4.332;2022-09-09T12:54:00;20.00;99.90
39665;DHT22;26679;50.872;4.332;2022-09-09T12:56:27;19.90;99.90
39665;DHT22;26679;50.872;4.332;2022-09-09T12:58:55;20.20;99.90
39665;DHT22;26679;50.872;4.332;2022-09-09T13:01:22;20.40;99.90
39665;DHT22;26679;50.872;4.332;2022-09-09T13:03:49;20.50;99.90
39665;DHT22;26679;50.872;4.332;2022-09-09T13:06:22;20.50;99.90
39665;DHT22;26679;50.872;4.332;2022-09-09T13:08:48;20.40;99.90
39665;DHT22;26679;50.872;4.332;2022-09-09T13:11:16;20.20;99.90
39665;DHT22;26679;50.872;4.332;2022-09-09T13:13:43;20.20;99.90
39665;DHT22;26679;50.872;4.332;2022-09-09T13:18:51;20.30;99.90
39665;DHT22;26679;50.872;4.332;2022-09-09T13:21:17;20.50;99.90
39665;DHT22;26679;50.872;4.332;2022-09-09T13:23:48;20.70;99.90
39665;DHT22;26679;50.872;4.332;2022-09-09T13:26:21;21.00;99.90
39665;DHT22;26679;50.872;4.332;2022-09-09T13:28:48;21.30;99.90
39665;DHT22;26679;50.872;4.332;2022-09-09T13:31:23;21.30;99.90
39665;DHT22;26679;50.872;4.332;2022-09-09T13:33:52;21.50;99.90
39665;DHT22;26679;50.872;4.332;2022-09-09T13:36:26;21.50;99.90
39665;DHT22;26679;50.872;4.332;2022-09-09T13:38:56;21.60;99.90
39665;DHT22;26679;50.872;4.332;2022-09-09T13:41:22;21.40;99.90
39665;DHT22;26679;50.872;4.332;2022-09-09T13:43:49;21.20;99.90
39665;DHT22;26679;50.872;4.332;2022-09-09T13:48:59;21.90;99.90
39665;DHT22;26679;50.872;4.332;2022-09-09T13:51:29;22.60;99.90
39665;DHT22;26679;50.872;4.332;2022-09-09T13:53:55;23.20;99.90
39665;DHT22;26679;50.872;4.332;2022-09-09T13:56:21;23.10;99.90
39665;DHT22;26679;50.872;4.332;2022-09-09T13:58:46;22.30;99.90
39665;DHT22;26679;50.872;4.332;2022-09-09T14:01:12;22.00;99.90
39665;DHT22;26679;50.872;4.332;2022-09-09T14:03:37;22.40;99.90
39665;DHT22;26679;50.872;4.332;2022-09-09T14:06:03;22.40;99.90
39665;DHT22;26679;50.872;4.332;2022-09-09T14:08:28;22.20;99.90
39665;DHT22;26679;50.872;4.332;2022-09-09T14:11:04;22.30;99.90
39665;DHT22;26679;50.872;4.332;2022-09-09T14:13:30;22.00;99.90
39665;DHT22;26679;50.872;4.332;2022-09-09T14:15:56;21.80;99.90
39665;DHT22;26679;50.872;4.332;2022-09-09T14:18:22;21.60;99.90
39665;DHT22;26679;50.872;4.332;2022-09-09T14:20:48;21.30;99.90
39665;DHT22;26679;50.872;4.332;2022-09-09T14:23:15;21.00;99.90
39665;DHT22;26679;50.872;4.332;2022-09-09T14:25:42;20.70;99.90
39665;DHT22;26679;50.872;4.332;2022-09-09T14:28:09;20.70;99.90
39665;DHT22;26679;50.872;4.332;2022-09-09T14:30:34;20.80;99.90
39665;DHT22;26679;50.872;4.332;2022-09-09T14:33:00;20.80;99.90
39665;DHT22;26679;50.872;4.332;2022-09-09T14:35:25;21.10;99.90
39665;DHT22;26679;50.872;4.332;2022-09-09T14:37:51;21.70;99.90
39665;DHT22;26679;50.872;4.332;2022-09-09T14:40:17;21.80;99.90
39665;DHT22;26679;50.872;4.332;2022-09-09T14:42:44;21.70;99.90
39665;DHT22;26679;50.872;4.332;2022-09-09T14:45:09;21.70;99.90
39665;DHT22;26679;50.872;4.332;2022-09-09T14:47:35;21.90;99.90
39665;DHT22;26679;50.872;4.332;2022-09-09T14:50:01;21.90;99.90
39665;DHT22;26679;50.872;4.332;2022-09-09T14:52:29;21.80;99.90
39665;DHT22;26679;50.872;4.332;2022-09-09T14:54:55;22.10;99.90
39665;DHT22;26679;50.872;4.332;2022-09-09T14:57:20;22.80;99.90
39665;DHT22;26679;50.872;4.332;2022-09-09T14:59:46;23.10;99.90
39665;DHT22;26679;50.872;4.332;2022-09-09T15:02:11;22.70;99.90
39665;DHT22;26679;50.872;4.332;2022-09-09T15:04:38;22.40;99.90
39665;DHT22;26679;50.872;4.332;2022-09-09T15:07:03;22.20;99.90
39665;DHT22;26679;50.872;4.332;2022-09-09T15:09:29;22.00;99.90
39665;DHT22;26679;50.872;4.332;2022-09-09T15:11:55;21.70;99.90
39665;DHT22;26679;50.872;4.332;2022-09-09T15:14:20;21.60;99.90
39665;DHT22;26679;50.872;4.332;2022-09-09T15:16:46;21.50;99.90
39665;DHT22;26679;50.872;4.332;2022-09-09T15:19:11;21.50;99.90
39665;DHT22;26679;50.872;4.332;2022-09-09T15:21:37;21.60;99.90
39665;DHT22;26679;50.872;4.332;2022-09-09T15:24:03;21.70;99.90
39665;DHT22;26679;50.872;4.332;2022-09-09T15:26:29;21.60;99.90
39665;DHT22;26679;50.872;4.332;2022-09-09T15:28:55;21.50;99.90
39665;DHT22;26679;50.872;4.332;2022-09-09T15:31:21;21.40;99.90
39665;DHT22;26679;50.872;4.332;2022-09-09T15:38:40;21.00;99.90
39665;DHT22;26679;50.872;4.332;2022-09-09T15:41:05;21.20;99.90
39665;DHT22;26679;50.872;4.332;2022-09-09T15:48:39;22.10;99.90
39665;DHT22;26679;50.872;4.332;2022-09-09T15:51:05;22.70;99.90
39665;DHT22;26679;50.872;4.332;2022-09-09T15:53:30;23.30;99.90
39665;DHT22;26679;50.872;4.332;2022-09-09T15:55:57;24.00;99.90
39665;DHT22;26679;50.872;4.332;2022-09-09T15:58:23;23.90;99.90
39665;DHT22;26679;50.872;4.332;2022-09-09T16:00:49;23.30;99.90
39665;DHT22;26679;50.872;4.332;2022-09-09T16:03:14;22.70;99.90
39665;DHT22;26679;50.872;4.332;2022-09-09T16:05:41;22.30;99.90
39665;DHT22;26679;50.872;4.332;2022-09-09T16:08:06;22.00;99.90
39665;DHT22;26679;50.872;4.332;2022-09-09T16:10:32;21.70;99.90
39665;DHT22;26679;50.872;4.332;2022-09-09T16:12:57;21.50;99.90
39665;DHT22;26679;50.872;4.332;2022-09-09T16:15:24;21.20;99.90
39665;DHT22;26679;50.872;4.332;2022-09-09T16:17:53;21.00;99.90
39665;DHT22;26679;50.872;4.332;2022-09-09T16:20:18;21.00;99.90
39665;DHT22;26679;50.872;4.332;2022-09-09T16:22:44;20.90;99.90
39665;DHT22;26679;50.872;4.332;2022-09-09T16:25:09;20.80;99.90
39665;DHT22;26679;50.872;4.332;2022-09-09T16:27:35;20.80;99.90
39665;DHT22;26679;50.872;4.332;2022-09-09T16:30:01;20.50;99.90
39665;DHT22;26679;50.872;4.332;2022-09-09T16:32:26;19.80;99.90
39665;DHT22;26679;50.872;4.332;2022-09-09T16:34:52;19.30;99.90
39665;DHT22;26679;50.872;4.332;2022-09-09T16:37:18;19.10;99.90
39665;DHT22;26679;50.872;4.332;2022-09-09T16:39:44;19.10;99.90
39665;DHT22;26679;50.872;4.332;2022-09-09T16:42:09;19.00;99.90
39665;DHT22;26679;50.872;4.332;2022-09-09T16:44:35;18.90;99.90
39665;DHT22;26679;50.872;4.332;2022-09-09T16:47:01;18.80;99.90
39665;DHT22;26679;50.872;4.332;2022-09-09T16:49:27;18.70;99.90
39665;DHT22;26679;50.872;4.332;2022-09-09T16:51:53;18.70;99.90
39665;DHT22;26679;50.872;4.332;2022-09-09T16:54:19;18.80;99.90
39665;DHT22;26679;50.872;4.332;2022-09-09T16:56:46;18.80;99.90
39665;DHT22;26679;50.872;4.332;2022-09-09T16:59:13;18.90;99.90
39665;DHT22;26679;50.872;4.332;2022-09-09T17:01:39;19.00;99.90
39665;DHT22;26679;50.872;4.332;2022-09-09T17:04:29;19.10;99.90
39665;DHT22;26679;50.872;4.332;2022-09-09T17:06:56;19.10;99.90
39665;DHT22;26679;50.872;4.332;2022-09-09T17:09:22;19.20;99.90
39665;DHT22;26679;50.872;4.332;2022-09-09T17:11:48;19.20;99.90
39665;DHT22;26679;50.872;4.332;2022-09-09T17:14:17;19.30;99.90
39665;DHT22;26679;50.872;4.332;2022-09-09T17:16:43;19.20;99.90
39665;DHT22;26679;50.872;4.332;2022-09-09T17:19:09;19.10;99.90
39665;DHT22;26679;50.872;4.332;2022-09-09T17:21:34;19.00;99.90
39665;DHT22;26679;50.872;4.332;2022-09-09T17:24:01;19.00;99.90
39665;DHT22;26679;50.872;4.332;2022-09-09T17:26:28;19.00;99.90
39665;DHT22;26679;50.872;4.332;2022-09-09T17:28:54;19.00;99.90
39665;DHT22;26679;50.872;4.332;2022-09-09T17:31:21;18.90;99.90
39665;DHT22;26679;50.872;4.332;2022-09-09T17:33:47;19.00;99.90
39665;DHT22;26679;50.872;4.332;2022-09-09T17:38:39;18.90;99.90
39665;DHT22;26679;50.872;4.332;2022-09-09T17:41:24;18.90;99.90
39665;DHT22;26679;50.872;4.332;2022-09-09T17:43:50;18.90;99.90
39665;DHT22;26679;50.872;4.332;2022-09-09T17:46:18;18.70;99.90
39665;DHT22;26679;50.872;4.332;2022-09-09T17:48:45;18.70;99.90
39665;DHT22;26679;50.872;4.332;2022-09-09T17:51:12;18.70;99.90
39665;DHT22;26679;50.872;4.332;2022-09-09T17:53:39;18.60;99.90
39665;DHT22;26679;50.872;4.332;2022-09-09T17:56:05;18.50;99.90
39665;DHT22;26679;50.872;4.332;2022-09-09T17:58:31;18.60;99.90
39665;DHT22;26679;50.872;4.332;2022-09-09T18:03:34;18.60;99.90
39665;DHT22;26679;50.872;4.332;2022-09-09T18:06:01;18.60;99.90
39665;DHT22;26679;50.872;4.332;2022-09-09T18:08:27;18.70;99.90